< < Back
Terminal Aerodrome Forecast


Current Version              Previous Versions:   1  2  3  4  5  6  7  8  9  

Terminal Aerodrome Forecast

652
FTUS42 KTAE 281720
TAFTLH
TAF
KTLH 281720Z 2818/2918 22007KT P6SM FEW060
     FM282200 22008KT P6SM VCTS SCT050CB
     FM290200 VRB02KT P6SM SCT250
     FM291500 24005KT P6SM FEW250=



Latest METAR

865
SAUS80 KWBC 290400 RRA
MTRTLH
METAR KTLH 290353Z AUTO 00000KT 10SM CLR 28/24 A3005 RMK AO2 SLP174
T02780244 $


USA.gov is the U.S. government's official web portal to all federal, state and local government web resources and services.